Time;durP1;ratioP1;P1;durP2;ratioP2;P2;SDS_P1;SDS_P2;PMS_P1;PMS_P2;Temp;Humidity;BMP_temperature;BMP_pressure;BME280_temperature;BME280_humidity;BME280_pressure;Samples;Min_cycle;Max_cycle;Signal;HPM_P1;HPM_P2
2022/01/29 00:01:51;;;;;;;1999.90;999.90;;;;;;;4.15;72.67;102322.50;5050738;28;20133;-64
2022/01/29 00:04:18;;;;;;;1999.90;999.90;;;;;;;3.98;73.45;102316.47;5071479;28;20512;-62
2022/01/29 00:06:44;;;;;;;1999.90;999.90;;;;;;;3.81;74.04;102298.28;5062828;28;20044;-62
2022/01/29 00:09:14;;;;;;;1999.90;999.90;;;;;;;3.66;74.47;102300.88;5062008;28;20056;-62
2022/01/29 00:11:41;;;;;;;1999.90;999.90;;;;;;;3.68;74.56;102286.16;5063955;28;20145;-62
2022/01/29 00:14:08;;;;;;;1999.90;999.90;;;;;;;3.76;74.74;102280.13;5054469;28;20145;-62
2022/01/29 00:16:34;;;;;;;1999.90;999.90;;;;;;;3.82;73.85;102282.72;5060401;28;20569;-63
2022/01/29 00:19:00;;;;;;;1999.90;999.90;;;;;;;3.86;73.99;102268.88;5065455;28;20084;-64
2022/01/29 00:21:27;;;;;;;1999.90;999.90;;;;;;;3.78;74.21;102252.44;5058483;28;20142;-64
2022/01/29 00:23:53;;;;;;;1999.90;999.90;;;;;;;3.86;73.97;102262.81;5058819;28;20052;-64
2022/01/29 00:26:22;;;;;;;1999.90;999.90;;;;;;;3.77;74.51;102276.66;5065213;28;20072;-62
2022/01/29 00:28:51;;;;;;;1999.90;999.90;;;;;;;3.79;74.59;102272.34;5063123;28;20525;-62
2022/01/29 00:31:17;;;;;;;1999.90;999.90;;;;;;;3.90;74.39;102270.63;5063649;28;20134;-62
2022/01/29 00:33:44;;;;;;;1999.90;999.90;;;;;;;4.06;73.78;102258.50;5069692;28;20045;-62
2022/01/29 00:36:10;;;;;;;1039.95;536.83;;;;;;;3.72;74.62;102268.03;5067978;28;20049;-65
2022/01/29 00:38:36;;;;;;;1999.90;999.90;;;;;;;3.93;75.22;102254.19;5063198;28;20064;-62
2022/01/29 00:41:03;;;;;;;1999.90;999.90;;;;;;;4.01;75.23;102243.78;5067363;28;20445;-62
2022/01/29 00:43:30;;;;;;;1999.90;999.90;;;;;;;4.00;73.92;102242.06;5068777;28;20169;-67
2022/01/29 00:45:57;;;;;;;1999.90;999.90;;;;;;;3.88;74.17;102242.94;5068874;28;20117;-66
2022/01/29 00:48:24;;;;;;;1999.90;999.90;;;;;;;3.87;74.48;102233.44;5070401;28;20078;-66
2022/01/29 00:50:50;;;;;;;1999.90;999.90;;;;;;;4.08;74.42;102241.19;5071724;28;20044;-66
2022/01/29 00:53:16;;;;;;;1999.90;999.90;;;;;;;4.19;74.45;102223.88;5070736;28;20562;-66
2022/01/29 00:55:44;;;;;;;1999.90;999.90;;;;;;;4.20;74.48;102224.72;5071341;28;20473;-66
2022/01/29 00:58:10;;;;;;;1999.90;999.90;;;;;;;4.09;74.78;102229.94;5065275;28;20128;-67
2022/01/29 01:00:37;;;;;;;1999.90;999.90;;;;;;;4.09;74.37;102204.00;5061630;28;20467;-67
2022/01/29 01:03:04;;;;;;;1999.90;999.90;;;;;;;3.91;75.25;102204.03;5068488;28;20089;-68
2022/01/29 01:05:31;;;;;;;1015.95;515.13;;;;;;;4.19;74.67;102200.50;5064085;28;20210;-68
2022/01/29 01:07:58;;;;;;;1999.90;999.90;;;;;;;4.18;74.65;102185.78;5068933;28;20500;-68
2022/01/29 01:10:24;;;;;;;1999.90;999.90;;;;;;;4.34;74.00;102192.66;5070140;28;20492;-68
2022/01/29 01:12:50;;;;;;;1999.90;999.90;;;;;;;4.37;73.75;102197.84;5057545;28;20089;-67
2022/01/29 01:15:17;;;;;;;1999.90;999.90;;;;;;;4.55;73.01;102186.53;5069319;28;20045;-67
2022/01/29 01:17:43;;;;;;;1999.90;999.90;;;;;;;4.73;72.64;102189.03;5069304;28;20094;-67
2022/01/29 01:20:12;;;;;;;1999.90;999.90;;;;;;;4.74;72.68;102171.72;5070720;28;20122;-67
2022/01/29 01:22:38;;;;;;;1999.90;999.90;;;;;;;4.59;73.44;102174.38;5067255;28;20185;-67
2022/01/29 01:25:05;;;;;;;1077.07;561.97;;;;;;;4.30;74.24;102162.38;5069766;28;20145;-66
2022/01/29 01:27:32;;;;;;;1999.90;999.90;;;;;;;4.39;74.36;102158.91;5068608;28;20068;-66
2022/01/29 01:29:58;;;;;;;1999.90;999.90;;;;;;;4.35;74.37;102152.88;5065658;28;20441;-66
2022/01/29 01:32:24;;;;;;;1999.90;999.90;;;;;;;4.38;74.21;102149.38;5063433;28;20106;-67
2022/01/29 01:34:54;;;;;;;1999.90;999.90;;;;;;;4.33;74.43;102146.78;5068179;28;20052;-67
2022/01/29 01:37:33;;;;;;;1999.90;999.90;;;;;;;4.46;74.46;102145.03;5070726;28;20131;-67
2022/01/29 01:39:59;;;;;;;1999.90;999.90;;;;;;;4.54;73.68;102135.47;5066367;28;20074;-67
2022/01/29 01:42:26;;;;;;;1999.90;999.90;;;;;;;4.59;73.97;102136.28;5068844;28;20045;-67
2022/01/29 01:44:53;;;;;;;1999.90;999.90;;;;;;;4.39;74.38;102126.00;5070712;28;20118;-66
2022/01/29 01:47:20;;;;;;;1999.90;999.90;;;;;;;4.47;74.05;102120.78;5068613;28;20416;-66
2022/01/29 01:49:46;;;;;;;1999.90;999.90;;;;;;;4.54;73.92;102119.03;5068986;28;20118;-67
2022/01/29 01:52:14;;;;;;;1999.90;999.90;;;;;;;4.61;73.94;102116.38;5070831;28;20052;-66
2022/01/29 01:54:44;;;;;;;1999.90;999.90;;;;;;;4.65;73.46;102112.03;5066447;28;20053;-66
2022/01/29 01:57:10;;;;;;;1555.50;799.90;;;;;;;4.52;73.80;102108.63;5068052;28;20075;-66
2022/01/29 01:59:37;;;;;;;1999.90;999.90;;;;;;;4.58;73.85;102103.38;5070556;28;20504;-66
2022/01/29 02:02:04;;;;;;;1999.90;999.90;;;;;;;4.79;73.05;102105.00;5068436;28;20072;-67
2022/01/29 02:04:32;;;;;;;1999.90;999.90;;;;;;;4.85;72.64;102098.03;5070462;28;20492;-67
2022/01/29 02:06:59;;;;;;;1999.90;999.90;;;;;;;4.75;73.07;102088.59;5061246;28;20049;-67
2022/01/29 02:09:25;;;;;;;1999.90;999.90;;;;;;;4.82;72.95;102090.25;5060983;28;20054;-67
2022/01/29 02:11:54;;;;;;;1999.90;999.90;;;;;;;4.79;73.05;102087.69;5069091;28;20493;-67
2022/01/29 02:14:24;;;;;;;1999.90;999.90;;;;;;;5.08;72.03;102078.81;5067565;28;20053;-67
2022/01/29 02:16:51;;;;;;;1999.90;999.90;;;;;;;4.99;72.29;102077.13;5065684;28;20049;-67
2022/01/29 02:19:18;;;;;;;1999.90;999.90;;;;;;;5.02;71.92;102060.69;5068907;28;20048;-67
2022/01/29 02:21:47;;;;;;;1082.95;575.60;;;;;;;4.79;72.61;102059.09;5054574;28;20060;-66
2022/01/29 02:24:14;;;;;;;1999.90;999.90;;;;;;;4.78;72.80;102056.50;5070133;28;20067;-66
2022/01/29 02:26:40;;;;;;;1999.90;999.90;;;;;;;4.73;73.21;102047.91;5068442;28;20049;-66
2022/01/29 02:29:07;;;;;;;1999.90;999.90;;;;;;;4.74;73.29;102039.22;5069496;28;20059;-66
2022/01/29 02:31:34;;;;;;;1999.90;999.90;;;;;;;4.93;72.94;102029.53;5067532;28;20044;-66
2022/01/29 02:34:00;;;;;;;1999.90;999.90;;;;;;;5.04;72.62;102027.72;5073866;28;20048;-66
2022/01/29 02:36:26;;;;;;;1999.90;999.90;;;;;;;5.01;72.71;102012.16;5075765;28;20049;-66
2022/01/29 02:38:54;;;;;;;1999.90;999.90;;;;;;;4.98;73.01;102009.59;5069081;28;20142;-66
2022/01/29 02:41:23;;;;;;;1999.90;999.90;;;;;;;4.91;73.24;101995.78;5068520;28;20056;-66
2022/01/29 02:43:51;;;;;;;1999.90;999.90;;;;;;;5.03;72.67;101989.59;5069393;28;20136;-66
2022/01/29 02:46:28;;;;;;;1999.90;999.90;;;;;;;4.89;73.38;101981.91;5068872;28;20048;-66
2022/01/29 02:48:56;;;;;;;1999.90;999.90;;;;;;;4.98;73.13;101975.78;5063748;28;20105;-66
2022/01/29 02:51:22;;;;;;;1552.55;797.03;;;;;;;4.89;73.58;101980.19;5069432;28;20053;-67
2022/01/29 02:53:49;;;;;;;1595.60;835.13;;;;;;;4.97;73.45;101976.66;5066399;28;20137;-66
2022/01/29 02:56:17;;;;;;;1999.90;999.90;;;;;;;4.87;73.77;101968.97;5069284;28;20044;-67
2022/01/29 02:58:43;;;;;;;1999.90;999.90;;;;;;;5.02;73.28;101960.16;5068738;28;20069;-66
2022/01/29 03:01:10;;;;;;;1999.90;999.90;;;;;;;5.06;73.53;101955.78;5066464;28;20064;-66
2022/01/29 03:03:37;;;;;;;1999.90;999.90;;;;;;;5.27;72.87;101958.16;5060636;28;20443;-66
2022/01/29 03:06:07;;;;;;;1999.90;999.90;;;;;;;5.45;72.11;101952.75;5082223;28;20048;-66
2022/01/29 03:08:34;;;;;;;1999.90;999.90;;;;;;;5.38;72.34;101944.19;5061228;28;20047;-66
2022/01/29 03:11:00;;;;;;;1999.90;999.90;;;;;;;5.28;72.39;101949.50;5066951;28;20520;-66
2022/01/29 03:13:28;;;;;;;1999.90;999.90;;;;;;;5.27;72.73;101939.97;5067792;28;20056;-66
2022/01/29 03:15:54;;;;;;;1999.90;999.90;;;;;;;5.27;73.06;101934.75;5068640;28;20114;-66
2022/01/29 03:18:21;;;;;;;1999.90;999.90;;;;;;;5.24;72.72;101927.00;5067586;28;20068;-66
2022/01/29 03:20:47;;;;;;;1999.90;999.90;;;;;;;5.23;73.34;101925.28;5065980;28;20068;-66
2022/01/29 03:23:13;;;;;;;1999.90;999.90;;;;;;;5.07;73.62;101927.16;5055595;28;20075;-66
2022/01/29 03:25:40;;;;;;;1999.90;999.90;;;;;;;5.02;74.04;101928.09;5067920;28;20064;-66
2022/01/29 03:28:06;;;;;;;1999.90;999.90;;;;;;;5.07;74.11;101913.31;5068552;28;20052;-66
2022/01/29 03:30:34;;;;;;;1999.90;999.90;;;;;;;4.98;74.39;101908.22;5067962;28;20048;-66
2022/01/29 03:33:00;;;;;;;1999.90;999.90;;;;;;;4.74;75.05;101904.09;5055560;28;20141;-66
2022/01/29 03:35:27;;;;;;;1999.90;999.90;;;;;;;4.54;75.85;101901.69;5077156;28;20087;-66
2022/01/29 03:37:53;;;;;;;1999.90;999.90;;;;;;;4.62;75.82;101892.06;5066423;28;20071;-66
2022/01/29 03:40:19;;;;;;;1999.90;999.90;;;;;;;4.67;75.93;101892.91;5068757;28;20045;-66
2022/01/29 03:42:58;;;;;;;1999.90;999.90;;;;;;;5.02;74.76;101896.91;5065959;28;20090;-66
2022/01/29 03:45:24;;;;;;;1999.90;999.90;;;;;;;5.04;74.87;101895.13;5061151;28;20102;-66
2022/01/29 03:47:52;;;;;;;1999.90;999.90;;;;;;;5.10;74.82;101895.09;5064736;28;20044;-66
2022/01/29 03:50:18;;;;;;;1999.90;999.90;;;;;;;5.08;74.86;101889.03;5068305;28;20121;-66
2022/01/29 03:52:44;;;;;;;1999.90;999.90;;;;;;;5.21;74.61;101885.44;5067684;28;20067;-66
2022/01/29 03:55:11;;;;;;;1999.90;999.90;;;;;;;5.08;75.41;101881.25;5068948;28;20106;-67
2022/01/29 03:57:37;;;;;;;1999.90;999.90;;;;;;;5.41;74.26;101873.03;5067396;28;20040;-66
2022/01/29 04:00:05;;;;;;;1999.90;999.90;;;;;;;5.30;74.72;101869.72;5069119;28;20557;-66
2022/01/29 04:02:31;;;;;;;1999.90;999.90;;;;;;;5.43;74.55;101860.91;5067158;28;20045;-66
2022/01/29 04:04:59;;;;;;;1999.90;999.90;;;;;;;5.39;75.25;101854.84;5080091;28;20067;-67
2022/01/29 04:07:25;;;;;;;886.20;482.23;;;;;;;5.46;75.70;101858.25;5058361;28;20082;-67
2022/01/29 04:09:52;;;;;;;1999.90;999.90;;;;;;;5.36;76.49;101848.81;5068889;28;20064;-68
2022/01/29 04:12:19;;;;;;;1999.90;999.90;;;;;;;5.40;76.66;101846.16;5062641;28;20496;-69
2022/01/29 04:14:45;;;;;;;1999.90;999.90;;;;;;;5.50;76.88;101843.47;5071884;28;20067;-70
2022/01/29 04:17:12;;;;;;;1999.90;999.90;;;;;;;5.48;77.01;101838.25;5069883;28;20049;-71
2022/01/29 04:19:39;;;;;;;1999.90;999.90;;;;;;;5.48;77.71;101834.78;5071525;28;20068;-72
2022/01/29 04:22:08;;;;;;;1999.90;999.90;;;;;;;5.21;79.10;101817.84;5071087;28;20056;-71
2022/01/29 04:24:35;;;;;;;1999.90;999.90;;;;;;;5.27;79.10;101817.75;5072743;28;20051;-71
2022/01/29 04:27:04;;;;;;;1999.90;999.90;;;;;;;5.34;78.82;101815.03;5068728;28;20451;-70
2022/01/29 04:29:41;;;;;;;1999.90;999.90;;;;;;;5.39;79.18;101807.19;5069434;28;20058;-70
2022/01/29 04:32:11;;;;;;;1999.90;999.90;;;;;;;5.37;79.30;101804.59;5068982;28;20052;-71
2022/01/29 04:34:38;;;;;;;1999.90;999.90;;;;;;;5.39;78.97;101795.03;5083954;28;20048;-72
2022/01/29 04:37:05;;;;;;;1999.90;999.90;;;;;;;5.27;80.28;101782.22;5073878;28;20045;-72
2022/01/29 04:39:33;;;;;;;1999.90;999.90;;;;;;;5.07;80.89;101778.13;5072105;28;20058;-71
2022/01/29 04:42:00;;;;;;;1999.90;999.90;;;;;;;4.79;82.05;101770.69;5068744;28;20048;-71
2022/01/29 04:44:26;;;;;;;1999.90;999.90;;;;;;;4.91;82.24;101767.09;5065060;28;20102;-71
2022/01/29 04:46:52;;;;;;;1999.90;999.90;;;;;;;4.93;82.68;101765.31;5070376;28;20045;-72
2022/01/29 04:49:18;;;;;;;1999.90;999.90;;;;;;;4.86;82.97;101761.94;5071491;28;20053;-72
2022/01/29 04:51:45;;;;;;;1999.90;999.90;;;;;;;4.85;83.26;101759.34;5070690;28;20101;-72
2022/01/29 04:54:11;;;;;;;1999.90;999.90;;;;;;;4.69;84.10;101747.44;5061893;28;20109;-72
2022/01/29 04:56:39;;;;;;;1999.90;999.90;;;;;;;4.97;83.39;101746.19;5051337;28;20134;-73
2022/01/29 04:59:06;;;;;;;1999.90;999.90;;;;;;;4.99;83.00;101748.78;5070830;28;20076;-73
2022/01/29 05:01:32;;;;;;;1999.90;999.90;;;;;;;4.86;83.05;101748.06;5071750;28;20044;-72
2022/01/29 05:03:59;;;;;;;1999.90;999.90;;;;;;;4.65;84.06;101737.94;5078649;28;20093;-71
2022/01/29 05:06:25;;;;;;;1999.90;999.90;;;;;;;4.61;84.35;101734.53;5080837;28;20408;-71
2022/01/29 05:08:51;;;;;;;1999.90;999.90;;;;;;;4.79;83.97;101723.03;5066653;28;20088;-71
2022/01/29 05:11:18;;;;;;;1999.90;999.90;;;;;;;4.53;84.97;101717.28;5051667;28;20466;-71
2022/01/29 05:13:46;;;;;;;1999.90;999.90;;;;;;;4.55;84.72;101718.13;5066148;28;20075;-71
2022/01/29 05:16:35;;;;;;;1999.90;999.90;;;;;;;4.78;83.67;101714.38;5069470;28;20041;-71
2022/01/29 05:27:13;;;;;;;1999.90;999.90;;;;;;;4.49;85.60;101681.84;5070069;28;20086;-71
2022/01/29 05:29:41;;;;;;;1999.90;999.90;;;;;;;4.44;85.73;101676.69;5070584;28;20102;-71
2022/01/29 05:32:11;;;;;;;1999.90;999.90;;;;;;;4.46;86.09;101668.91;5064160;28;20168;-71
2022/01/29 05:34:37;;;;;;;1999.90;999.90;;;;;;;4.56;85.90;101660.97;5084648;28;20131;-71
2022/01/29 05:37:04;;;;;;;1999.90;999.90;;;;;;;4.52;85.99;101661.88;5074407;28;20127;-71
2022/01/29 05:39:31;;;;;;;1999.90;999.90;;;;;;;4.54;86.33;101659.28;5070616;28;20040;-71
2022/01/29 05:41:58;;;;;;;1999.90;999.90;;;;;;;4.60;86.39;101643.63;5070464;28;20071;-71
2022/01/29 05:44:25;;;;;;;1999.90;999.90;;;;;;;4.43;87.60;101629.09;5066587;28;21100;-72
2022/01/29 05:46:53;;;;;;;1541.05;777.63;;;;;;;4.50;86.89;101627.31;5067892;28;20117;-71
2022/01/29 05:49:20;;;;;;;1999.90;999.90;;;;;;;4.32;88.13;101624.94;5071091;28;20441;-71
2022/01/29 05:51:46;;;;;;;1999.90;999.90;;;;;;;4.46;88.25;101609.19;5068886;28;20090;-71
2022/01/29 05:54:13;;;;;;;1999.90;999.90;;;;;;;4.53;87.84;101609.06;5070345;28;20114;-72
2022/01/29 05:56:39;;;;;;;1999.90;999.90;;;;;;;4.54;87.60;101600.41;5068577;28;20072;-71
2022/01/29 05:59:05;;;;;;;1999.90;999.90;;;;;;;4.51;88.10;101592.63;5070093;28;20098;-70
2022/01/29 06:01:32;;;;;;;1067.45;544.67;;;;;;;4.52;88.29;101594.38;5070877;28;20125;-70
2022/01/29 06:03:59;;;;;;;1999.90;999.90;;;;;;;4.54;88.33;101589.16;5077618;28;20576;-70
2022/01/29 06:06:26;;;;;;;1999.90;999.90;;;;;;;4.63;88.09;101597.69;5073233;28;20051;-70
2022/01/29 06:08:53;;;;;;;1999.90;999.90;;;;;;;4.52;88.57;101585.72;5070312;28;20522;-69
2022/01/29 06:11:19;;;;;;;1545.47;783.42;;;;;;;4.61;88.10;101581.28;5068140;28;20493;-70
2022/01/29 06:13:45;;;;;;;1999.90;999.90;;;;;;;4.77;87.79;101571.50;5056462;28;20110;-69
2022/01/29 06:16:12;;;;;;;1999.90;999.90;;;;;;;4.84;87.42;101575.75;5070510;28;20504;-70
2022/01/29 06:18:40;;;;;;;1999.90;999.90;;;;;;;5.05;86.57;101571.94;5067686;28;20045;-71
2022/01/29 06:21:09;;;;;;;1015.15;511.15;;;;;;;5.10;86.13;101570.97;5070433;28;20127;-71
2022/01/29 06:23:37;;;;;;;1999.90;999.90;;;;;;;5.02;86.73;101578.06;5067471;28;20460;-71
2022/01/29 06:26:07;;;;;;;1161.75;577.00;;;;;;;5.00;86.53;101561.63;5071035;28;20056;-72
2022/01/29 06:28:34;;;;;;;1999.90;999.90;;;;;;;4.83;87.92;101561.03;5067368;28;20061;-71
2022/01/29 06:31:01;;;;;;;1999.90;999.90;;;;;;;4.90;87.88;101568.72;5066647;28;20041;-73
2022/01/29 06:33:27;;;;;;;1999.90;999.90;;;;;;;5.09;87.34;101558.03;5069006;28;20044;-73
2022/01/29 06:35:54;;;;;;;1999.90;999.90;;;;;;;4.95;87.78;101547.84;5075075;28;20041;-73
2022/01/29 06:38:22;;;;;;;1999.90;999.90;;;;;;;5.02;88.12;101543.41;5069227;28;20049;-73
2022/01/29 06:40:48;;;;;;;1999.90;999.90;;;;;;;4.94;88.39;101542.66;5068703;28;20052;-73
2022/01/29 06:43:15;;;;;;;1999.90;999.90;;;;;;;5.11;87.80;101541.50;5061654;28;20109;-73
2022/01/29 06:45:44;;;;;;;1999.90;999.90;;;;;;;5.16;87.69;101546.63;5068050;28;20553;-73
2022/01/29 06:48:11;;;;;;;1999.90;999.90;;;;;;;5.16;87.95;101544.91;5067546;28;20575;-73
2022/01/29 06:50:38;;;;;;;1999.90;999.90;;;;;;;5.23;87.21;101540.44;5069918;28;20041;-73
2022/01/29 06:53:05;;;;;;;1999.90;999.90;;;;;;;5.21;87.21;101539.63;5067314;28;20098;-73
2022/01/29 06:55:33;;;;;;;1999.90;999.90;;;;;;;5.31;86.77;101523.84;5069935;28;20109;-72
2022/01/29 06:58:00;;;;;;;1999.90;999.90;;;;;;;5.43;86.77;101516.72;5067769;28;20044;-72
2022/01/29 07:00:26;;;;;;;1999.90;999.90;;;;;;;5.43;86.54;101514.09;5061270;28;20080;-71
2022/01/29 07:02:52;;;;;;;1999.90;999.90;;;;;;;5.44;86.25;101506.25;5059272;28;20044;-72
2022/01/29 07:05:19;;;;;;;1999.90;999.90;;;;;;;5.29;86.74;101493.53;5082293;28;20140;-71
2022/01/29 07:07:45;;;;;;;1999.90;999.90;;;;;;;5.25;86.64;101491.88;5065291;28;20044;-71
2022/01/29 07:10:11;;;;;;;1999.90;999.90;;;;;;;5.19;87.02;101498.03;5067221;28;20585;-71
2022/01/29 07:12:40;;;;;;;1019.30;517.55;;;;;;;5.29;86.60;101499.59;5066039;28;20458;-70
2022/01/29 07:15:10;;;;;;;1999.90;999.90;;;;;;;5.33;86.57;101498.66;5067650;28;20048;-70
2022/01/29 07:17:36;;;;;;;1999.90;999.90;;;;;;;5.35;86.01;101490.84;5053839;28;20114;-70
2022/01/29 07:20:04;;;;;;;1999.90;999.90;;;;;;;5.44;85.70;101498.44;5048435;28;20068;-70
2022/01/29 07:22:31;;;;;;;1999.90;999.90;;;;;;;5.37;86.05;101496.84;5060914;28;20037;-69
2022/01/29 07:24:57;;;;;;;1999.90;999.90;;;;;;;5.46;85.63;101494.09;5065741;28;20048;-69
2022/01/29 07:27:23;;;;;;;1999.90;999.90;;;;;;;5.41;85.76;101485.50;5052022;28;20068;-69
2022/01/29 07:29:51;;;;;;;1999.90;999.90;;;;;;;5.63;84.79;101480.75;5066744;28;20053;-68
2022/01/29 07:32:17;;;;;;;1999.90;999.90;;;;;;;5.59;84.92;101476.50;5062180;28;20514;-68
2022/01/29 07:34:44;;;;;;;1999.90;999.90;;;;;;;5.53;85.55;101477.50;5079007;28;20072;-68
2022/01/29 07:37:10;;;;;;;1999.90;999.90;;;;;;;5.48;85.68;101468.91;5066388;28;20040;-68
2022/01/29 07:39:36;;;;;;;1999.90;999.90;;;;;;;5.52;86.36;101460.16;5065423;28;20134;-68
2022/01/29 07:42:03;;;;;;;1999.90;999.90;;;;;;;5.63;85.51;101460.81;5067776;28;20129;-68
2022/01/29 07:44:30;;;;;;;1999.90;999.90;;;;;;;5.74;85.71;101457.97;5065356;28;20129;-68
2022/01/29 07:46:57;;;;;;;1999.90;999.90;;;;;;;5.84;85.51;101452.53;5065942;28;20083;-68
2022/01/29 07:49:24;;;;;;;1547.70;777.20;;;;;;;5.83;85.55;101439.59;5056787;28;20570;-68
2022/01/29 07:51:50;;;;;;;1999.90;999.90;;;;;;;5.90;86.48;101442.94;5066016;28;20064;-69
2022/01/29 07:54:16;;;;;;;1999.90;999.90;;;;;;;6.08;86.13;101446.00;5056907;28;20073;-68
2022/01/29 07:56:43;;;;;;;1536.35;767.72;;;;;;;6.17;85.94;101453.59;5046536;28;20045;-68
2022/01/29 07:59:10;;;;;;;1999.90;999.90;;;;;;;6.28;85.96;101449.00;5057045;28;20508;-68
2022/01/29 08:01:36;;;;;;;1999.90;999.90;;;;;;;6.49;85.13;101444.22;5056646;28;20077;-68
2022/01/29 08:04:04;;;;;;;1999.90;999.90;;;;;;;6.42;85.68;101451.31;5062544;28;20525;-68
2022/01/29 08:06:31;;;;;;;1999.90;999.90;;;;;;;6.63;84.58;101435.16;5063772;28;20064;-68
2022/01/29 08:08:57;;;;;;;1999.90;999.90;;;;;;;6.75;84.55;101432.25;5064613;28;20052;-68
2022/01/29 08:11:24;;;;;;;1574.07;787.95;;;;;;;6.67;84.72;101441.16;5056713;28;20127;-68
2022/01/29 08:13:50;;;;;;;1999.90;999.90;;;;;;;6.65;84.39;101435.97;5064215;28;20072;-68
2022/01/29 08:16:17;;;;;;;1228.70;610.28;;;;;;;6.62;85.18;101432.56;5063547;28;20566;-64
2022/01/29 08:18:45;;;;;;;1999.90;999.90;;;;;;;6.65;84.94;101417.72;5063598;28;20090;-64
2022/01/29 08:21:13;;;;;;;1215.80;626.42;;;;;;;6.72;84.90;101418.44;5064742;28;20059;-64
2022/01/29 08:23:40;;;;;;;1999.90;999.90;;;;;;;6.92;84.50;101407.50;5064563;28;20044;-64
2022/01/29 08:26:06;;;;;;;1999.90;999.90;;;;;;;6.94;84.21;101409.19;5066716;28;20463;-64
2022/01/29 08:28:32;;;;;;;1999.90;999.90;;;;;;;7.05;83.81;101404.56;5063390;28;20127;-64
2022/01/29 08:30:59;;;;;;;1999.90;999.90;;;;;;;6.83;83.89;101411.22;5066376;28;20049;-64
2022/01/29 08:33:25;;;;;;;1652.57;813.63;;;;;;;6.85;83.91;101412.88;5061696;28;20102;-64
2022/01/29 08:35:52;;;;;;;1551.20;774.90;;;;;;;6.88;84.58;101409.31;5063074;28;20067;-63
2022/01/29 08:38:20;;;;;;;1999.90;999.90;;;;;;;7.04;83.91;101407.19;5058730;28;20055;-63
2022/01/29 08:40:46;;;;;;;942.50;535.97;;;;;;;6.86;84.22;101411.13;5063680;28;20091;-63
2022/01/29 08:43:13;;;;;;;1540.05;776.65;;;;;;;7.01;83.30;101407.28;5054604;28;20076;-63
2022/01/29 08:45:39;;;;;;;1999.90;999.90;;;;;;;7.12;83.78;101413.06;5053260;28;20064;-64
2022/01/29 08:48:06;;;;;;;1999.90;999.90;;;;;;;7.18;83.48;101423.31;5063165;28;20098;-64
2022/01/29 08:50:32;;;;;;;1999.90;999.90;;;;;;;7.29;82.73;101405.63;5063266;28;20060;-64
2022/01/29 08:52:58;;;;;;;1999.90;999.90;;;;;;;7.22;82.81;101406.69;5052503;28;20129;-64
2022/01/29 08:55:26;;;;;;;1999.90;999.90;;;;;;;7.32;82.70;101405.53;5057182;28;20065;-64
2022/01/29 08:57:52;;;;;;;1999.90;999.90;;;;;;;7.26;83.17;101396.13;5053938;28;20129;-64
2022/01/29 09:00:19;;;;;;;1999.90;999.90;;;;;;;7.27;82.49;101391.78;5067296;28;20114;-64
2022/01/29 09:02:46;;;;;;;1999.90;999.90;;;;;;;7.20;82.95;101396.31;5065477;28;20068;-64
2022/01/29 09:05:13;;;;;;;1999.90;999.90;;;;;;;7.33;82.21;101392.47;5062327;28;20045;-64
2022/01/29 09:07:40;;;;;;;1999.90;999.90;;;;;;;7.27;82.72;101381.34;5066946;28;20529;-63
2022/01/29 09:10:07;;;;;;;1544.45;774.88;;;;;;;7.27;83.12;101369.16;5055435;28;20076;-64
2022/01/29 09:12:34;;;;;;;1999.90;999.90;;;;;;;7.33;82.51;101360.28;5059211;28;20432;-64
2022/01/29 09:15:01;;;;;;;1087.35;546.55;;;;;;;7.32;82.45;101354.22;5067678;28;20141;-64
2022/01/29 09:17:28;;;;;;;1999.90;999.90;;;;;;;7.35;82.20;101343.69;5062720;28;20045;-63
2022/01/29 09:19:54;;;;;;;1999.90;999.90;;;;;;;7.51;82.17;101348.47;5063806;28;20392;-63
2022/01/29 09:22:20;;;;;;;1526.38;764.42;;;;;;;7.51;82.05;101345.84;5048517;28;20076;-63
2022/01/29 09:24:46;;;;;;;1999.90;999.90;;;;;;;7.27;82.59;101340.47;5056775;28;20075;-63
2022/01/29 09:27:13;;;;;;;1552.22;774.95;;;;;;;7.27;82.79;101339.59;5051910;28;20064;-63
2022/01/29 09:29:41;;;;;;;1999.90;999.90;;;;;;;7.51;82.64;101341.50;5066873;28;20072;-64
2022/01/29 09:32:08;;;;;;;1525.75;767.28;;;;;;;7.64;81.78;101335.03;5053156;28;20106;-63
2022/01/29 09:34:35;;;;;;;1999.90;999.90;;;;;;;7.55;82.02;101340.50;5062570;28;20197;-63
2022/01/29 09:37:01;;;;;;;1574.65;785.92;;;;;;;7.48;82.54;101320.72;5064638;28;20129;-63
2022/01/29 09:39:27;;;;;;;1999.90;999.90;;;;;;;7.44;82.49;101316.47;5058835;28;20126;-63
2022/01/29 09:41:55;;;;;;;1999.90;999.90;;;;;;;7.69;82.43;101329.66;5059855;28;20072;-63
2022/01/29 09:44:23;;;;;;;1999.90;999.90;;;;;;;7.97;80.86;101333.13;5050143;28;20053;-63
2022/01/29 09:46:52;;;;;;;1999.90;999.90;;;;;;;7.79;81.50;101323.25;5062874;28;20044;-63
2022/01/29 09:49:18;;;;;;;1999.90;999.90;;;;;;;7.92;81.02;101326.31;5066558;28;20515;-63
2022/01/29 09:51:45;;;;;;;1999.90;999.90;;;;;;;8.00;80.90;101311.28;5067411;28;20485;-64
2022/01/29 09:54:11;;;;;;;1523.30;761.50;;;;;;;8.12;80.28;101303.06;5052171;28;20069;-63
2022/01/29 09:56:38;;;;;;;1999.90;999.90;;;;;;;7.98;80.45;101303.47;5055479;28;20041;-63
2022/01/29 09:59:04;;;;;;;1999.90;999.90;;;;;;;7.88;81.05;101314.25;5053358;28;20080;-63
2022/01/29 10:01:31;;;;;;;1377.60;695.65;;;;;;;7.73;81.85;101305.16;5059032;28;20480;-63
2022/01/29 10:04:02;;;;;;;1999.90;999.90;;;;;;;7.70;81.94;101292.22;5064843;28;20119;-63
2022/01/29 10:06:28;;;;;;;1999.90;999.90;;;;;;;7.92;81.47;101305.44;5066217;28;20052;-64
2022/01/29 10:08:55;;;;;;;1999.90;999.90;;;;;;;7.95;80.96;101302.72;5062619;28;20075;-63
2022/01/29 10:11:23;;;;;;;1158.65;579.17;;;;;;;8.01;80.49;101292.97;5053391;28;20049;-63
2022/01/29 10:13:50;;;;;;;1999.90;999.90;;;;;;;8.10;80.38;101299.63;5058790;28;20053;-63
2022/01/29 10:16:19;;;;;;;1999.90;999.90;;;;;;;7.80;81.21;101270.97;5053359;28;20041;-63
2022/01/29 10:18:48;;;;;;;956.88;430.25;;;;;;;7.84;81.50;101275.22;5063510;28;20048;-64
2022/01/29 10:21:18;;;;;;;1999.90;999.90;;;;;;;7.80;81.72;101276.22;5067751;28;20053;-64
2022/01/29 10:23:45;;;;;;;1614.50;787.60;;;;;;;7.90;81.43;101268.09;5063701;28;20094;-75
2022/01/29 10:39:40;;;;;;;6.70;4.50;;;;;;;9.53;74.91;101211.66;5066489;28;20886;-66
2022/01/29 10:42:15;;;;;;;8.00;4.40;;;;;;;9.19;77.33;101212.97;5059499;28;20122;-66
2022/01/29 10:44:44;;;;;;;9.23;4.90;;;;;;;8.88;78.79;101222.00;5032061;28;58426;-66
2022/01/29 10:47:11;;;;;;;11.00;6.13;;;;;;;8.88;79.01;101214.16;5023705;28;20052;-67
2022/01/29 10:49:44;;;;;;;9.20;5.05;;;;;;;8.82;79.12;101215.25;5023196;28;20069;-67
2022/01/29 10:52:12;;;;;;;9.57;4.88;;;;;;;8.65;79.68;101223.69;5019191;28;20054;-67
2022/01/29 10:54:41;;;;;;;13.77;5.75;;;;;;;8.72;79.90;101222.56;5020376;28;20153;-68
2022/01/29 10:57:09;;;;;;;10.75;5.43;;;;;;;8.65;80.58;101228.91;5023398;28;20041;-66
2022/01/29 10:59:38;;;;;;;8.80;4.90;;;;;;;8.69;80.19;101204.38;5022507;28;20111;-67
2022/01/29 11:02:07;;;;;;;10.15;6.47;;;;;;;9.08;79.08;101201.19;5018828;28;20046;-67
2022/01/29 11:04:36;;;;;;;8.93;5.38;;;;;;;8.98;78.99;101194.63;5014562;28;20053;-66
2022/01/29 11:07:08;;;;;;;10.25;4.90;;;;;;;8.96;78.87;101206.88;5021049;28;20080;-66
2022/01/29 11:09:34;;;;;;;9.35;5.85;;;;;;;9.18;78.73;101203.41;5021309;28;20115;-67
2022/01/29 11:12:04;;;;;;;8.45;4.75;;;;;;;9.21;78.11;101202.41;5015115;28;20120;-67
2022/01/29 11:14:32;;;;;;;10.77;6.20;;;;;;;8.91;79.26;101198.34;5021883;28;20041;-67
2022/01/29 11:17:00;;;;;;;11.02;4.80;;;;;;;8.84;79.29;101195.13;5022239;28;20058;-67
2022/01/29 11:19:26;;;;;;;10.30;5.32;;;;;;;8.96;78.93;101199.03;5021457;28;20105;-66